メインページ
METAR-TAF:

METAR-TAF

空港 :

マニラ, フィリピン

ニノイ・アキノ国際空港

緯度: 14-31N, 経度: 121-00E, 海抜: 14m

現時点の気象観測

当レポートは29分前の10:00(UTC)に作成
北東の風 8kt、北西から東/北東の間で変化する
気温 29°C
湿度 66%
気圧 1012 hPa
視程10km以上
高度2500ftの雲はほとんどない
高度30000ftの雲は散在している

METAR: RPLL 231000Z 05008KT 310V070 9999 FEW025 SCT300 29/22 Q1012 NOSIG RMK A2988

時間: 18:29 (10:29 UTC)

予報

当レポートは5時間29分前の05:00(UTC)に作成
予報は23日の 06時(UTC)から 24日の 12時(UTC)まで有効
東/北東の風 6kt
視程10km以上
高度2500ftの雲はほとんどない
23日の 06時(UTC)から 23日の 12時(UTC)まで一時的に
東/北東の風 11kt
高度2500ftの雲はほとんどない
高度10000ftの雲は散在している
23日の 18時(UTC)から 23日の 24時(UTC)まで一時的に
北東の風 5kt
高度2300ftの雲はほとんどない

TAF: RPLL 230500Z 2306/2412 07006KT 9999 FEW025 TX33/2306Z TN24/2321Z TEMPO 2306/2312 06011KT FEW025 SCT100 TEMPO 2318/2324 05005KT FEW023

4,000以上の空港の気象観測と天気予報(METAR報とTAF報)

利用可能な観測所は地図上に黄色い丸と赤い丸で示す。

丸の上にカーソルを重ねると観測所名を参照できる。

次にクリックすると気象観測と天気予報を参照できる。

マップの切り替え:黒色「×」印の緑ボタンをクリックして拡大、「-」印の緑ボタンをクリックして縮小、緑色の三角印をクリックして隣りの地図に切り替え


METAR-TAF: